createdAt,value
2017-09-13T00:00:15.855Z,1000.47
2017-09-13T00:00:56.426Z,1000.43
2017-09-13T00:01:36.973Z,1000.42
2017-09-13T00:02:17.546Z,1000.43
2017-09-13T00:02:58.103Z,1000.39
2017-09-13T00:03:38.620Z,1000.39
2017-09-13T00:04:19.189Z,1000.36
2017-09-13T00:04:59.705Z,1000.32
2017-09-13T00:05:40.261Z,1000.33
2017-09-13T00:06:20.866Z,1000.34
2017-09-13T00:07:01.400Z,1000.33
2017-09-13T00:07:41.966Z,1000.33
2017-09-13T00:08:22.642Z,1000.31
2017-09-13T00:09:03.199Z,1000.34
2017-09-13T00:09:43.806Z,1000.32
2017-09-13T00:10:24.335Z,1000.3
2017-09-13T00:11:04.898Z,1000.28
2017-09-13T00:11:45.468Z,1000.23
2017-09-13T00:12:26.027Z,1000.2
2017-09-13T00:13:06.581Z,1000.19
2017-09-13T00:13:47.136Z,1000.22
2017-09-13T00:14:27.686Z,1000.22
2017-09-13T00:15:08.235Z,1000.19
2017-09-13T00:15:48.816Z,1000.16
2017-09-13T00:16:29.372Z,1000.19
2017-09-13T00:17:09.941Z,1000.14
2017-09-13T00:17:50.470Z,1000.19
2017-09-13T00:18:31.044Z,1000.19
2017-09-13T00:19:11.575Z,1000.15
2017-09-13T00:19:52.074Z,1000.21
2017-09-13T00:20:32.653Z,1000.18
2017-09-13T00:21:13.221Z,1000.15
2017-09-13T00:21:53.769Z,1000.12
2017-09-13T00:22:34.240Z,1000.1
2017-09-13T00:23:14.771Z,1000.09
2017-09-13T00:23:55.373Z,1000.08
2017-09-13T00:24:35.983Z,1000.09
2017-09-13T00:25:16.528Z,1000.09
2017-09-13T00:25:57.029Z,1000.15
2017-09-13T00:26:37.576Z,1000.14
2017-09-13T00:27:18.128Z,1000.03
2017-09-13T00:27:58.779Z,1000.06
2017-09-13T00:28:39.275Z,1000.01
2017-09-13T00:29:19.934Z,999.94
2017-09-13T00:30:00.498Z,999.99
2017-09-13T00:30:41.017Z,999.94
2017-09-13T00:31:21.697Z,999.92
2017-09-13T00:32:02.286Z,999.92
2017-09-13T00:32:42.875Z,999.92
2017-09-13T00:33:23.428Z,999.95
2017-09-13T00:34:04.223Z,999.93
2017-09-13T00:34:44.700Z,999.9
2017-09-13T00:35:25.302Z,999.91
2017-09-13T00:36:05.848Z,999.85
2017-09-13T00:36:46.442Z,999.86
2017-09-13T00:37:27.034Z,999.88
2017-09-13T00:38:07.560Z,999.86
2017-09-13T00:38:48.312Z,999.9
2017-09-13T00:39:28.800Z,999.87
2017-09-13T00:40:09.337Z,999.86
2017-09-13T00:40:49.864Z,999.87
2017-09-13T00:41:30.469Z,999.82
2017-09-13T00:42:11.011Z,999.87
2017-09-13T00:42:51.525Z,999.82
2017-09-13T00:43:32.140Z,999.77
2017-09-13T00:44:12.666Z,999.78
2017-09-13T00:44:53.175Z,999.75
2017-09-13T00:45:33.719Z,999.77
2017-09-13T00:46:14.244Z,999.7
2017-09-13T00:46:54.767Z,999.75
2017-09-13T00:47:35.292Z,999.71
2017-09-13T00:48:16.081Z,999.71
2017-09-13T00:48:56.625Z,999.71
2017-09-13T00:49:37.217Z,999.73
2017-09-13T00:50:17.959Z,999.66
2017-09-13T00:50:58.631Z,999.71
2017-09-13T00:51:39.191Z,999.68
2017-09-13T00:52:19.711Z,999.67
2017-09-13T00:53:00.308Z,999.67
2017-09-13T00:53:40.807Z,999.65
2017-09-13T00:54:21.359Z,999.69
2017-09-13T00:55:01.879Z,999.67
2017-09-13T00:55:42.405Z,999.66
2017-09-13T00:56:22.915Z,999.64
2017-09-13T00:57:03.485Z,999.68
2017-09-13T00:57:44.009Z,999.61
2017-09-13T00:58:24.534Z,999.62
2017-09-13T00:59:05.069Z,999.59
2017-09-13T00:59:45.561Z,999.55
2017-09-13T01:00:26.208Z,999.56
2017-09-13T01:01:06.748Z,999.57
2017-09-13T01:01:47.349Z,999.58
2017-09-13T01:02:27.893Z,999.52
2017-09-13T01:03:08.521Z,999.61
2017-09-13T01:03:49.071Z,999.56
2017-09-13T01:04:29.605Z,999.56
2017-09-13T01:05:10.170Z,999.53
2017-09-13T01:05:50.662Z,999.56
2017-09-13T01:06:31.241Z,999.52
2017-09-13T01:07:11.772Z,999.5
2017-09-13T01:07:52.279Z,999.55
2017-09-13T01:08:32.918Z,999.51
2017-09-13T01:09:13.508Z,999.5
2017-09-13T01:09:54.006Z,999.48
2017-09-13T01:10:34.551Z,999.45
2017-09-13T01:11:15.154Z,999.47
2017-09-13T01:11:55.699Z,999.47
2017-09-13T01:12:36.337Z,999.48
2017-09-13T01:13:16.986Z,999.52
2017-09-13T01:13:57.508Z,999.52
2017-09-13T01:14:38.043Z,999.48
2017-09-13T01:15:18.643Z,999.42
2017-09-13T01:15:59.160Z,999.43
2017-09-13T01:16:39.744Z,999.4
2017-09-13T01:17:20.234Z,999.37
2017-09-13T01:18:00.753Z,999.39
2017-09-13T01:18:41.278Z,999.3
2017-09-13T01:19:21.815Z,999.35
2017-09-13T01:20:02.380Z,999.31
2017-09-13T01:20:42.907Z,999.27
2017-09-13T01:21:23.473Z,999.27
2017-09-13T01:22:04.009Z,999.26
2017-09-13T01:22:44.597Z,999.25
2017-09-13T01:23:25.122Z,999.25
2017-09-13T01:24:05.701Z,999.22
2017-09-13T01:24:46.170Z,999.2
2017-09-13T01:25:26.828Z,999.24
2017-09-13T01:26:07.331Z,999.25
2017-09-13T01:26:47.936Z,999.25
2017-09-13T01:27:28.496Z,999.25
2017-09-13T01:28:09.056Z,999.17
2017-09-13T01:28:49.564Z,999.18
2017-09-13T01:29:30.150Z,999.09
2017-09-13T01:30:10.645Z,999.09
2017-09-13T01:30:51.134Z,999.13
2017-09-13T01:31:31.727Z,999.03
2017-09-13T01:32:12.249Z,999.07
2017-09-13T01:32:52.839Z,999.1
2017-09-13T01:33:33.375Z,999.1
2017-09-13T01:34:13.846Z,999.08
2017-09-13T01:34:54.450Z,999.06
2017-09-13T01:35:34.967Z,999.11
2017-09-13T01:36:15.512Z,999.06
2017-09-13T01:36:56.035Z,999.01
2017-09-13T01:37:36.606Z,999.01
2017-09-13T01:38:17.137Z,999
2017-09-13T01:38:57.682Z,998.93
2017-09-13T01:39:38.193Z,998.93
2017-09-13T01:40:18.770Z,998.94
2017-09-13T01:40:59.342Z,998.91
2017-09-13T01:41:39.862Z,998.93
2017-09-13T01:42:20.381Z,998.91
2017-09-13T01:43:00.907Z,998.9
2017-09-13T01:43:41.440Z,998.88
2017-09-13T01:44:21.992Z,998.89
2017-09-13T01:45:02.492Z,998.83
2017-09-13T01:45:43.057Z,998.82
2017-09-13T01:46:23.622Z,998.78
2017-09-13T01:47:04.078Z,998.75
2017-09-13T01:47:44.653Z,998.74
2017-09-13T01:48:25.142Z,998.65
2017-09-13T01:49:05.730Z,998.73
2017-09-13T01:49:46.198Z,998.73
2017-09-13T01:50:26.782Z,998.67
2017-09-13T01:51:07.344Z,998.65
2017-09-13T01:51:47.913Z,998.64
2017-09-13T01:52:28.453Z,998.62
2017-09-13T01:53:09.025Z,998.6
2017-09-13T01:53:49.505Z,998.58
2017-09-13T01:54:30.077Z,998.61
2017-09-13T01:55:10.590Z,998.57
2017-09-13T01:55:51.157Z,998.5
2017-09-13T01:56:31.740Z,998.55
2017-09-13T01:57:12.246Z,998.54
2017-09-13T01:57:52.768Z,998.51
2017-09-13T01:58:33.335Z,998.51
2017-09-13T01:59:13.897Z,998.53
2017-09-13T01:59:54.428Z,998.52
2017-09-13T02:00:34.949Z,998.51
2017-09-13T02:01:15.478Z,998.48
2017-09-13T02:01:56.100Z,998.48
2017-09-13T02:02:36.643Z,998.47
2017-09-13T02:03:17.209Z,998.49
2017-09-13T02:03:57.713Z,998.52
2017-09-13T02:04:38.264Z,998.5
2017-09-13T02:05:18.841Z,998.53
2017-09-13T02:05:59.369Z,998.5
2017-09-13T02:06:39.909Z,998.48
2017-09-13T02:07:20.510Z,998.45
2017-09-13T02:08:01.009Z,998.42
2017-09-13T02:08:41.582Z,998.44
2017-09-13T02:09:22.102Z,998.46
2017-09-13T02:10:02.632Z,998.44
2017-09-13T02:10:43.166Z,998.44
2017-09-13T02:11:23.747Z,998.42
2017-09-13T02:12:04.287Z,998.31
2017-09-13T02:12:44.805Z,998.38
2017-09-13T02:13:25.376Z,998.41
2017-09-13T02:14:05.861Z,998.37
2017-09-13T02:14:46.427Z,998.32
2017-09-13T02:15:26.950Z,998.26
2017-09-13T02:16:07.504Z,998.19
2017-09-13T02:16:48.067Z,998.23
2017-09-13T02:17:28.587Z,998.21
2017-09-13T02:18:09.109Z,998.2
2017-09-13T02:18:49.660Z,998.22
2017-09-13T02:19:30.200Z,998.21
2017-09-13T02:20:10.752Z,998.24
2017-09-13T02:20:51.271Z,998.24
2017-09-13T02:21:31.775Z,998.22
2017-09-13T02:22:12.324Z,998.2
2017-09-13T02:22:52.937Z,998.19
2017-09-13T02:23:33.460Z,998.17
2017-09-13T02:24:13.995Z,998.17
2017-09-13T02:24:54.516Z,998.14
2017-09-13T02:25:35.047Z,998.1
2017-09-13T02:26:15.622Z,998.06
2017-09-13T02:26:56.152Z,998.09
2017-09-13T02:27:36.684Z,998.04
2017-09-13T02:28:17.146Z,998.06
2017-09-13T02:28:57.764Z,997.99
2017-09-13T02:29:38.305Z,998.03
2017-09-13T02:30:18.791Z,998.01
2017-09-13T02:30:59.359Z,997.94
2017-09-13T02:31:39.865Z,998.01
2017-09-13T02:32:20.471Z,998.01
2017-09-13T02:33:01.052Z,998.02
2017-09-13T02:33:41.568Z,997.94
2017-09-13T02:34:22.101Z,998
2017-09-13T02:35:02.627Z,997.95
2017-09-13T02:35:43.177Z,997.89
2017-09-13T02:36:23.799Z,997.91
2017-09-13T02:37:04.320Z,997.9
2017-09-13T02:37:44.752Z,997.84
2017-09-13T02:38:25.348Z,997.79
2017-09-13T02:39:05.927Z,997.79
2017-09-13T02:39:46.495Z,997.81
2017-09-13T02:40:27.034Z,997.71
2017-09-13T02:41:07.609Z,997.73
2017-09-13T02:41:48.151Z,997.76
2017-09-13T02:42:28.712Z,997.73
2017-09-13T02:43:09.232Z,997.7
2017-09-13T02:43:49.767Z,997.75
2017-09-13T02:44:30.265Z,997.61
2017-09-13T02:45:10.881Z,997.61
2017-09-13T02:45:51.423Z,997.52
2017-09-13T02:46:31.897Z,997.53
2017-09-13T02:47:12.437Z,997.51
2017-09-13T02:47:53.066Z,997.48
2017-09-13T02:48:33.620Z,997.45
2017-09-13T02:49:14.178Z,997.4
2017-09-13T02:49:54.737Z,997.45
2017-09-13T02:50:35.264Z,997.44
2017-09-13T02:51:15.786Z,997.39
2017-09-13T02:51:56.262Z,997.41
2017-09-13T02:52:36.790Z,997.41
2017-09-13T02:53:17.366Z,997.43
2017-09-13T02:53:57.884Z,997.39
2017-09-13T02:54:38.489Z,997.33
2017-09-13T02:55:18.972Z,997.38
2017-09-13T02:55:59.516Z,997.35
2017-09-13T02:56:40.036Z,997.29
2017-09-13T02:57:20.609Z,997.29
2017-09-13T02:58:01.092Z,997.25
2017-09-13T02:58:41.646Z,997.2
2017-09-13T02:59:22.233Z,997.16
2017-09-13T03:00:02.786Z,997.12
2017-09-13T03:00:43.343Z,997.17
2017-09-13T03:01:23.887Z,997.12
2017-09-13T03:02:04.428Z,997
2017-09-13T03:02:44.950Z,997.03
2017-09-13T03:03:25.475Z,997.04
2017-09-13T03:04:06.040Z,997
2017-09-13T03:04:46.578Z,997.02
2017-09-13T03:05:27.122Z,997
2017-09-13T03:06:07.639Z,996.95
2017-09-13T03:06:48.226Z,996.94
2017-09-13T03:07:28.702Z,996.92
2017-09-13T03:08:09.267Z,996.92
2017-09-13T03:08:49.860Z,996.91
2017-09-13T03:09:30.486Z,996.8
2017-09-13T03:10:11.008Z,996.79
2017-09-13T03:10:51.544Z,996.76
2017-09-13T03:11:32.133Z,996.77
2017-09-13T03:12:12.670Z,996.73
2017-09-13T03:12:53.254Z,996.71
2017-09-13T03:13:33.843Z,996.69
2017-09-13T03:14:14.381Z,996.7
2017-09-13T03:14:54.870Z,996.65
2017-09-13T03:15:35.421Z,996.65
2017-09-13T03:16:15.996Z,996.65
2017-09-13T03:16:56.516Z,996.66
2017-09-13T03:17:37.092Z,996.65
2017-09-13T03:18:17.714Z,996.67
2017-09-13T03:18:58.253Z,996.67
2017-09-13T03:19:38.819Z,996.67
2017-09-13T03:20:19.327Z,996.65
2017-09-13T03:20:59.895Z,996.62
2017-09-13T03:21:40.407Z,996.63
2017-09-13T03:22:20.930Z,996.72
2017-09-13T03:23:01.472Z,996.65
2017-09-13T03:23:42.037Z,996.69
2017-09-13T03:24:22.537Z,996.63
2017-09-13T03:25:03.083Z,996.56
2017-09-13T03:25:43.666Z,996.57
2017-09-13T03:26:24.207Z,996.56
2017-09-13T03:27:04.678Z,996.55
2017-09-13T03:27:45.226Z,996.58
2017-09-13T03:28:25.771Z,996.59
2017-09-13T03:29:06.383Z,996.6
2017-09-13T03:29:46.925Z,996.51
2017-09-13T03:30:27.460Z,996.53
2017-09-13T03:31:08.046Z,996.53
2017-09-13T03:31:49.581Z,996.5
2017-09-13T03:32:30.139Z,996.61
2017-09-13T03:33:10.644Z,996.61
2017-09-13T03:33:51.217Z,996.54
2017-09-13T03:34:31.702Z,996.49
2017-09-13T03:35:12.280Z,996.54
2017-09-13T03:35:52.828Z,996.57
2017-09-13T03:36:33.357Z,996.53
2017-09-13T03:37:13.916Z,996.58
2017-09-13T03:37:54.484Z,996.6
2017-09-13T03:38:35.035Z,996.54
2017-09-13T03:39:15.591Z,996.55
2017-09-13T03:39:56.132Z,996.56
2017-09-13T03:40:36.666Z,996.52
2017-09-13T03:41:17.194Z,996.46
2017-09-13T03:41:57.739Z,996.49
2017-09-13T03:42:38.251Z,996.5
2017-09-13T03:43:18.842Z,996.43
2017-09-13T03:43:59.359Z,996.44
2017-09-13T03:44:39.953Z,996.45
2017-09-13T03:45:20.479Z,996.39
2017-09-13T03:46:00.978Z,996.35
2017-09-13T03:46:41.517Z,996.37
2017-09-13T03:47:22.068Z,996.3
2017-09-13T03:48:02.581Z,996.37
2017-09-13T03:48:43.157Z,996.31
2017-09-13T03:49:23.687Z,996.29
2017-09-13T03:50:04.288Z,996.33
2017-09-13T03:50:44.775Z,996.34
2017-09-13T03:51:25.359Z,996.3
2017-09-13T03:52:05.939Z,996.29
2017-09-13T03:52:46.448Z,996.28
2017-09-13T03:53:26.928Z,996.28
2017-09-13T03:54:07.481Z,996.25
2017-09-13T03:54:48.032Z,996.28
2017-09-13T03:55:28.597Z,996.23
2017-09-13T03:56:09.144Z,996.22
2017-09-13T03:56:49.659Z,996.28
2017-09-13T03:57:30.209Z,996.25
2017-09-13T03:58:10.723Z,996.2
2017-09-13T03:58:51.233Z,996.23
2017-09-13T03:59:31.815Z,996.17
2017-09-13T04:00:12.358Z,996.19
2017-09-13T04:00:52.891Z,996.25
2017-09-13T04:01:33.480Z,996.15
2017-09-13T04:02:14.014Z,996.16
2017-09-13T04:02:54.527Z,996.12
2017-09-13T04:03:35.026Z,996.16
2017-09-13T04:04:15.556Z,996.1
2017-09-13T04:04:56.193Z,996.08
2017-09-13T04:05:36.658Z,996.06
2017-09-13T04:06:17.148Z,996.03
2017-09-13T04:06:57.800Z,996.04
2017-09-13T04:07:38.338Z,996
2017-09-13T04:08:18.891Z,996
2017-09-13T04:08:59.406Z,996.03
2017-09-13T04:09:39.943Z,995.93
2017-09-13T04:10:20.533Z,995.91
2017-09-13T04:11:01.074Z,995.9
2017-09-13T04:11:41.627Z,995.87
2017-09-13T04:12:22.144Z,995.87
2017-09-13T04:13:02.706Z,995.88
2017-09-13T04:13:43.320Z,995.81
2017-09-13T04:14:23.810Z,995.78
2017-09-13T04:15:04.370Z,995.77
2017-09-13T04:15:44.966Z,995.71
2017-09-13T04:16:25.510Z,995.71
2017-09-13T04:17:06.036Z,995.71
2017-09-13T04:17:46.563Z,995.69
2017-09-13T04:18:27.115Z,995.58
2017-09-13T04:19:07.638Z,995.61
2017-09-13T04:19:48.189Z,995.6
2017-09-13T04:20:28.703Z,995.56
2017-09-13T04:21:09.257Z,995.64
2017-09-13T04:21:49.794Z,995.62
2017-09-13T04:22:30.348Z,995.61
2017-09-13T04:23:10.876Z,995.68
2017-09-13T04:23:51.360Z,995.57
2017-09-13T04:24:31.894Z,995.5
2017-09-13T04:25:12.455Z,995.56
2017-09-13T04:25:52.958Z,995.57
2017-09-13T04:26:33.536Z,995.52
2017-09-13T04:27:14.086Z,995.55
2017-09-13T04:27:54.605Z,995.51
2017-09-13T04:28:35.133Z,995.48
2017-09-13T04:29:15.650Z,995.48
2017-09-13T04:29:56.177Z,995.48
2017-09-13T04:30:36.705Z,995.43
2017-09-13T04:31:17.249Z,995.38
2017-09-13T04:31:57.813Z,995.39
2017-09-13T04:32:38.371Z,995.31
2017-09-13T04:33:18.924Z,995.28
2017-09-13T04:33:59.505Z,995.33
2017-09-13T04:34:40.058Z,995.27
2017-09-13T04:35:20.600Z,995.22
2017-09-13T04:36:01.098Z,995.28
2017-09-13T04:36:41.683Z,995.21
2017-09-13T04:37:22.206Z,995.27
2017-09-13T04:38:02.710Z,995.29
2017-09-13T04:38:43.251Z,995.28
2017-09-13T04:39:23.797Z,995.18
2017-09-13T04:40:04.360Z,995.16
2017-09-13T04:40:44.900Z,995.11
2017-09-13T04:41:25.428Z,995.14
2017-09-13T04:42:05.962Z,995.15
2017-09-13T04:42:46.531Z,995.12
2017-09-13T04:43:27.038Z,995.13
2017-09-13T04:44:07.583Z,995.16
2017-09-13T04:44:48.130Z,995.12
2017-09-13T04:45:28.659Z,995.23
2017-09-13T04:46:09.183Z,995.19
2017-09-13T04:46:49.733Z,995.1
2017-09-13T04:47:30.293Z,995.04
2017-09-13T04:48:10.899Z,995.1
2017-09-13T04:48:51.444Z,994.97
2017-09-13T04:49:31.943Z,994.99
2017-09-13T04:50:12.498Z,994.89
2017-09-13T04:50:53.050Z,994.86
2017-09-13T04:51:33.687Z,994.89
2017-09-13T04:52:14.214Z,994.9
2017-09-13T04:52:54.779Z,994.85
2017-09-13T04:53:35.321Z,994.91
2017-09-13T04:54:15.835Z,994.91
2017-09-13T04:54:56.453Z,994.97
2017-09-13T04:55:36.997Z,994.97
2017-09-13T04:56:17.546Z,994.87
2017-09-13T04:56:58.084Z,994.9
2017-09-13T04:57:38.658Z,995
2017-09-13T04:58:19.196Z,995.05
2017-09-13T04:58:59.869Z,994.94
2017-09-13T04:59:40.393Z,994.97
2017-09-13T05:00:20.916Z,995
2017-09-13T05:01:01.452Z,995
2017-09-13T05:01:42.023Z,994.93
2017-09-13T05:02:22.517Z,994.95
2017-09-13T05:03:03.099Z,994.84
2017-09-13T05:03:43.654Z,994.94
2017-09-13T05:04:24.243Z,994.86
2017-09-13T05:05:04.722Z,994.76
2017-09-13T05:05:45.275Z,994.87
2017-09-13T05:06:25.820Z,994.88
2017-09-13T05:07:06.315Z,994.91
2017-09-13T05:07:46.862Z,994.8
2017-09-13T05:08:27.411Z,994.91
2017-09-13T05:09:07.932Z,994.64
2017-09-13T05:09:48.528Z,994.85
2017-09-13T05:10:29.116Z,994.85
2017-09-13T05:11:09.610Z,994.78
2017-09-13T05:11:50.153Z,994.9
2017-09-13T05:12:30.766Z,994.9
2017-09-13T05:13:11.316Z,994.76
2017-09-13T05:13:51.861Z,994.76
2017-09-13T05:14:32.347Z,994.89
2017-09-13T05:15:12.851Z,994.88
2017-09-13T05:15:53.415Z,994.8
2017-09-13T05:16:33.964Z,994.81
2017-09-13T05:17:14.463Z,994.92
2017-09-13T05:17:55.002Z,994.89
2017-09-13T05:18:35.560Z,994.88
2017-09-13T05:19:16.106Z,994.83
2017-09-13T05:19:56.689Z,994.84
2017-09-13T05:20:37.208Z,994.93
2017-09-13T05:21:17.741Z,994.87
2017-09-13T05:21:58.292Z,994.82
2017-09-13T05:22:38.859Z,994.88
2017-09-13T05:23:19.393Z,994.95
2017-09-13T05:23:59.957Z,994.9
2017-09-13T05:24:40.478Z,994.88
2017-09-13T05:25:21.147Z,994.88
2017-09-13T05:26:01.702Z,994.83
2017-09-13T05:26:42.235Z,994.81
2017-09-13T05:27:22.828Z,994.9
2017-09-13T05:28:03.437Z,995.01
2017-09-13T05:28:44.002Z,994.91
2017-09-13T05:29:24.551Z,994.78
2017-09-13T05:30:05.105Z,994.83
2017-09-13T05:30:47.706Z,994.75
2017-09-13T05:31:28.247Z,994.91
2017-09-13T05:32:08.781Z,994.88
2017-09-13T05:32:49.413Z,994.85
2017-09-13T05:33:29.990Z,994.74
2017-09-13T05:34:10.511Z,994.82
2017-09-13T05:34:51.049Z,994.76
2017-09-13T05:35:31.540Z,994.74
2017-09-13T05:36:12.153Z,994.77
2017-09-13T05:36:52.639Z,994.8
2017-09-13T05:37:33.187Z,994.77
2017-09-13T05:38:13.787Z,994.86
2017-09-13T05:38:54.519Z,994.47
2017-09-13T05:39:35.403Z,994.72
2017-09-13T05:40:15.954Z,994.67
2017-09-13T05:40:56.866Z,994.68
2017-09-13T05:41:37.625Z,994.72
2017-09-13T05:42:18.196Z,994.56
2017-09-13T05:42:58.816Z,994.71
2017-09-13T05:43:39.373Z,994.73
2017-09-13T05:44:20.227Z,994.73
2017-09-13T05:45:00.965Z,994.74
2017-09-13T05:45:42.974Z,994.85
2017-09-13T05:46:23.187Z,994.71
2017-09-13T05:47:03.750Z,994.84
2017-09-13T05:47:44.545Z,994.69
2017-09-13T05:48:25.124Z,994.69
2017-09-13T05:49:06.006Z,994.76
2017-09-13T05:49:46.630Z,994.7
2017-09-13T05:50:27.122Z,994.77
2017-09-13T05:51:07.649Z,994.8
2017-09-13T05:51:48.188Z,994.81
2017-09-13T05:52:28.723Z,994.79
2017-09-13T05:53:09.297Z,994.72
2017-09-13T05:53:49.858Z,994.74
2017-09-13T05:54:30.386Z,994.68
2017-09-13T05:55:10.947Z,994.93
2017-09-13T05:55:51.495Z,994.82
2017-09-13T05:56:32.074Z,994.81
2017-09-13T05:57:12.562Z,994.83
2017-09-13T05:57:53.145Z,995.02
2017-09-13T05:58:33.663Z,994.8
2017-09-13T05:59:14.192Z,994.81
2017-09-13T05:59:54.692Z,994.87
2017-09-13T06:00:35.262Z,994.66
2017-09-13T06:01:15.824Z,994.79
2017-09-13T06:01:56.352Z,994.72
2017-09-13T06:02:36.880Z,994.75
2017-09-13T06:03:17.457Z,994.67
2017-09-13T06:03:58.059Z,994.76
2017-09-13T06:04:38.623Z,994.62
2017-09-13T06:05:19.083Z,994.58
2017-09-13T06:05:59.665Z,994.67
2017-09-13T06:06:40.146Z,994.64
2017-09-13T06:07:20.702Z,994.65
2017-09-13T06:08:01.335Z,994.72
2017-09-13T06:08:41.830Z,994.58
2017-09-13T06:09:22.440Z,994.65
2017-09-13T06:10:03.011Z,994.79
2017-09-13T06:10:43.663Z,994.63
2017-09-13T06:11:24.192Z,994.65
2017-09-13T06:12:04.871Z,994.69
2017-09-13T06:12:45.490Z,994.61
2017-09-13T06:13:26.099Z,994.51
2017-09-13T06:14:06.620Z,994.72
2017-09-13T06:14:47.219Z,994.67
2017-09-13T06:15:27.772Z,994.8
2017-09-13T06:16:08.346Z,994.65
2017-09-13T06:16:49.176Z,994.72
2017-09-13T06:17:29.599Z,994.64
2017-09-13T06:18:10.091Z,994.56
2017-09-13T06:18:50.794Z,994.72
2017-09-13T06:19:31.320Z,994.55
2017-09-13T06:20:11.865Z,994.56
2017-09-13T06:20:52.412Z,994.55
2017-09-13T06:21:32.952Z,994.57
2017-09-13T06:22:13.463Z,994.57
2017-09-13T06:22:54.057Z,994.72
2017-09-13T06:23:34.608Z,994.65
2017-09-13T06:24:15.129Z,994.64
2017-09-13T06:24:56.012Z,994.72
2017-09-13T06:25:36.546Z,994.82
2017-09-13T06:26:17.110Z,994.82
2017-09-13T06:26:57.670Z,994.71
2017-09-13T06:27:38.246Z,994.92
2017-09-13T06:28:18.742Z,994.85
2017-09-13T06:28:59.378Z,994.84
2017-09-13T06:29:39.902Z,994.78
2017-09-13T06:30:20.397Z,994.9
2017-09-13T06:31:01.105Z,994.8
2017-09-13T06:31:41.560Z,994.81
2017-09-13T06:32:22.075Z,994.69
2017-09-13T06:33:02.558Z,994.75
2017-09-13T06:33:43.315Z,994.64
2017-09-13T06:34:23.783Z,994.69
2017-09-13T06:35:04.319Z,994.79
2017-09-13T06:35:44.819Z,994.82
2017-09-13T06:36:25.370Z,994.67
2017-09-13T06:37:06.030Z,994.71
2017-09-13T06:37:46.449Z,994.82
2017-09-13T06:38:26.987Z,994.5
2017-09-13T06:39:07.485Z,994.57
2017-09-13T06:39:48.084Z,994.55
2017-09-13T06:40:28.631Z,994.45
2017-09-13T06:41:09.209Z,994.35
2017-09-13T06:41:49.740Z,994.48
2017-09-13T06:42:30.964Z,994.3
2017-09-13T06:43:11.430Z,994.49
2017-09-13T06:43:52.091Z,994.42
2017-09-13T06:44:32.596Z,994.61
2017-09-13T06:45:13.113Z,994.44
2017-09-13T06:45:53.776Z,994.31
2017-09-13T06:46:34.190Z,994.3
2017-09-13T06:47:14.775Z,994.43
2017-09-13T06:47:55.302Z,994.43
2017-09-13T06:48:35.814Z,994.45
2017-09-13T06:49:16.372Z,994.42
2017-09-13T06:49:56.981Z,994.39
2017-09-13T06:50:37.501Z,994.44
2017-09-13T06:51:18.064Z,994.45
2017-09-13T06:51:58.579Z,994.53
2017-09-13T06:52:39.108Z,994.51
2017-09-13T06:53:19.646Z,994.51
2017-09-13T06:54:00.180Z,994.56
2017-09-13T06:54:40.722Z,994.39
2017-09-13T06:55:21.286Z,994.39
2017-09-13T06:56:01.840Z,994.6
2017-09-13T06:56:42.414Z,994.59
2017-09-13T06:57:22.941Z,994.44
2017-09-13T06:58:03.549Z,994.57
2017-09-13T06:58:44.064Z,994.45
2017-09-13T06:59:24.589Z,994.53
2017-09-13T07:00:05.151Z,994.46
2017-09-13T07:00:45.665Z,994.4
2017-09-13T07:01:26.220Z,994.52
2017-09-13T07:02:07.443Z,994.4
2017-09-13T07:02:47.948Z,994.49
2017-09-13T07:03:28.476Z,994.36
2017-09-13T07:04:09.024Z,994.63
2017-09-13T07:04:49.540Z,994.45
2017-09-13T07:05:30.061Z,994.49
2017-09-13T07:06:10.659Z,994.42
2017-09-13T07:06:51.452Z,994.56
2017-09-13T07:07:31.752Z,994.49
2017-09-13T07:08:12.293Z,994.5
2017-09-13T07:08:52.812Z,994.46
2017-09-13T07:09:33.427Z,994.42
2017-09-13T07:10:13.957Z,994.51
2017-09-13T07:10:56.000Z,994.48
2017-09-13T07:11:36.532Z,994.53
2017-09-13T07:12:17.074Z,994.53
2017-09-13T07:12:57.593Z,994.57
2017-09-13T07:13:38.349Z,994.44
2017-09-13T07:14:19.224Z,994.5
2017-09-13T07:14:59.775Z,994.42
2017-09-13T07:15:40.272Z,994.53
2017-09-13T07:16:21.329Z,994.52
2017-09-13T07:17:01.859Z,994.48
2017-09-13T07:17:42.408Z,994.46
2017-09-13T07:18:22.947Z,994.44
2017-09-13T07:19:03.449Z,994.53
2017-09-13T07:19:44.085Z,994.58
2017-09-13T07:20:24.718Z,994.44
2017-09-13T07:21:05.223Z,994.45
2017-09-13T07:21:45.789Z,994.43
2017-09-13T07:22:26.862Z,994.42
2017-09-13T07:23:07.083Z,994.47
2017-09-13T07:23:47.609Z,994.44
2017-09-13T07:24:28.091Z,994.56
2017-09-13T07:25:08.908Z,994.47
2017-09-13T07:25:49.463Z,994.39
2017-09-13T07:26:30.151Z,994.46
2017-09-13T07:27:10.656Z,994.38
2017-09-13T07:27:51.245Z,994.58
2017-09-13T07:28:31.746Z,994.4
2017-09-13T07:29:12.302Z,994.44
2017-09-13T07:29:52.882Z,994.4
2017-09-13T07:30:33.497Z,994.5
2017-09-13T07:31:14.399Z,994.39
2017-09-13T07:31:54.805Z,994.36
2017-09-13T07:32:35.343Z,994.45
2017-09-13T07:33:15.862Z,994.36
2017-09-13T07:33:56.382Z,994.27
2017-09-13T07:34:37.389Z,994.19
2017-09-13T07:35:17.977Z,994.27
2017-09-13T07:35:58.578Z,994.27
2017-09-13T07:36:39.588Z,994.32
2017-09-13T07:37:20.516Z,994.29
2017-09-13T07:38:01.079Z,994.21
2017-09-13T07:38:41.953Z,994.22
2017-09-13T07:39:22.475Z,994.24
2017-09-13T07:40:02.957Z,994.33
2017-09-13T07:40:43.520Z,994.37
2017-09-13T07:41:24.045Z,994.32
2017-09-13T07:42:04.598Z,994.3
2017-09-13T07:42:45.148Z,994.33
2017-09-13T07:43:25.679Z,994.36
2017-09-13T07:44:06.809Z,994.33
2017-09-13T07:44:47.391Z,994.35
2017-09-13T07:45:27.910Z,994.3
2017-09-13T07:46:08.487Z,994.34
2017-09-13T07:46:49.067Z,994.26
2017-09-13T07:47:29.610Z,994.27
2017-09-13T07:48:10.149Z,994.37
2017-09-13T07:48:50.690Z,994.26
2017-09-13T07:49:31.321Z,994.51
2017-09-13T07:50:12.419Z,994.29
2017-09-13T07:50:53.021Z,994.28
2017-09-13T07:51:33.818Z,994.29
2017-09-13T07:52:14.516Z,994.34
2017-09-13T07:52:54.996Z,994.24
2017-09-13T07:53:35.546Z,994.25
2017-09-13T07:54:16.083Z,994.31
2017-09-13T07:54:56.556Z,994.2
2017-09-13T07:55:37.112Z,994.32
2017-09-13T07:56:17.676Z,994.34
2017-09-13T07:56:58.221Z,994.29
2017-09-13T07:57:38.739Z,994.09
2017-09-13T07:58:19.302Z,994.24
2017-09-13T07:58:59.921Z,994.21
2017-09-13T07:59:40.473Z,994.15
2017-09-13T08:00:21.065Z,994.1
2017-09-13T08:01:01.822Z,994.07
2017-09-13T08:01:42.383Z,994.19
2017-09-13T08:02:22.913Z,994.2
2017-09-13T08:03:03.463Z,994.18
2017-09-13T08:03:44.011Z,994.1
2017-09-13T08:04:24.561Z,994.14
2017-09-13T08:05:05.041Z,994.05
2017-09-13T08:05:45.555Z,994.19
2017-09-13T08:06:26.144Z,994.18
2017-09-13T08:07:06.630Z,994.16
2017-09-13T08:07:47.172Z,994.24
2017-09-13T08:08:27.731Z,994.22
2017-09-13T08:09:08.282Z,994.01
2017-09-13T08:09:48.806Z,994.27
2017-09-13T08:10:29.359Z,994.45
2017-09-13T08:11:09.964Z,994.17
2017-09-13T08:11:50.480Z,994.26
2017-09-13T08:12:31.018Z,994.26
2017-09-13T08:13:11.585Z,994.26
2017-09-13T08:13:52.095Z,994.37
2017-09-13T08:14:33.330Z,994.31
2017-09-13T08:15:13.896Z,994.34
2017-09-13T08:15:54.425Z,994.29
2017-09-13T08:16:34.964Z,994.19
2017-09-13T08:17:15.565Z,994.32
2017-09-13T08:17:56.093Z,994.3
2017-09-13T08:18:36.638Z,994.3
2017-09-13T08:19:17.173Z,994.21
2017-09-13T08:19:57.723Z,994.36
2017-09-13T08:20:38.225Z,994.43
2017-09-13T08:21:18.784Z,994.3
2017-09-13T08:21:59.296Z,994.41
2017-09-13T08:22:39.848Z,994.39
2017-09-13T08:23:20.390Z,994.42
2017-09-13T08:24:00.895Z,994.55
2017-09-13T08:24:41.533Z,994.27
2017-09-13T08:25:22.715Z,994.33
2017-09-13T08:26:03.276Z,994.29
2017-09-13T08:26:43.871Z,994.4
2017-09-13T08:27:24.410Z,994.45